ADDS METAR Data INFO
IDs: Format: Raw Decoded Include TAF

Data at: 1245 UTC 19 Oct 2017

KCOS 191154Z 00000KT 10SM SCT250 09/M04 A3016 RMK AO2 SLP153 T00891039 10100 20044 55010
KCOS 191054Z 09005KT 10SM FEW250 08/M04 A3015 RMK AO2 SLP146 T00831039
KCOS 190954Z 36006KT 10SM FEW250 07/M04 A3016 RMK AO2 SLP148 T00721039
KCOS 190854Z 02007KT 10SM SCT250 06/M04 A3019 RMK AO2 SLP166 T00561039 57012
KCOS 190754Z 07003KT 10SM SCT250 07/M04 A3021 RMK AO2 SLP168 T00671039
KCOS 190654Z 01005KT 10SM FEW250 07/M04 A3022 RMK AO2 SLP176 T00671039 402500050
KCOS 190554Z 03005KT 10SM FEW250 07/M04 A3023 RMK AO2 SLP177 T00721044 10200 20072 50002
KCOS 190454Z 00000KT 10SM FEW250 12/M05 A3024 RMK AO2 SLP175 T01171050
KCOS 190354Z 36003KT 10SM SCT250 13/M06 A3024 RMK AO2 SLP178 T01281056
KCOS 190254Z 00000KT 10SM SCT250 14/M07 A3023 RMK AO2 SLP179 T01441067 52012
KCOS 190154Z 09010KT 10SM SCT250 17/M08 A3022 RMK AO2 SLP169 T01671083
KCOS 190054Z 11009KT 10SM SCT250 17/M09 A3020 RMK AO2 SLP165 T01721094
KCOS 182354Z 13008KT 10SM FEW190 BKN250 21/M10 A3019 RMK AO2 SLP156 T02061100 10250 20206 53002
KCOS 182254Z 13004KT 10SM FEW190 FEW250 23/M12 A3018 RMK AO2 SLP157 T02331122
KCOS 182154Z 17004KT 10SM FEW190 SCT250 24/M12 A3018 RMK AO2 SLP155 T02441117
KCOS 182054Z 00000KT 10SM FEW190 SCT250 24/M13 A3018 RMK AO2 SLP156 T02391128 58014
KCOS 181954Z 31005KT 10SM FEW190 SCT250 24/M12 A3020 RMK AO2 SLP169 T02441122
KCOS 181854Z 01010KT 10SM FEW190 BKN250 23/M12 A3022 RMK AO2 SLP180 T02331122
KCOS 181754Z 34015KT 10SM BKN190 BKN250 23/M12 A3023 RMK AO2 SLP175 T02331117 10239 20094 51010
KCOS 181654Z 35008KT 10SM BKN200 BKN250 22/M09 A3022 RMK AO2 SLP175 T02171089
KCOS 181554Z 34004KT 10SM BKN230 18/M08 A3021 RMK AO2 SLP182 T01831083
KCOS 181454Z 35010KT 10SM BKN230 15/M08 A3019 RMK AO2 SLP185 T01501083 53016
KCOS 181354Z 33011KT 10SM BKN230 15/M09 A3017 RMK AO2 SLP154 T01501094
KCOS 181254Z 34010KT 10SM BKN220 14/M08 A3014 RMK AO2 SLP143 T01391083
KCOS 181154Z 30006KT 10SM BKN240 12/M06 A3014 RMK AO2 SLP140 T01221061 10122 20050 56005
KCOS 181054Z 36005KT 10SM BKN240 09/M04 A3014 RMK AO2 SLP144 T00891039
KCOS 180954Z 02008KT 10SM BKN240 07/M03 A3013 RMK AO2 SLP145 T00721033
KCOS 180854Z 01008KT 10SM BKN250 08/M04 A3015 RMK AO2 SLP153 T00781044 56007
KCOS 180754Z 02006KT 10SM FEW250 06/M05 A3016 RMK AO2 SLP160 T00561050
KCOS 180654Z 01007KT 10SM FEW250 06/M05 A3017 RMK AO2 SLP166 T00561050 402330044
KCOS 180554Z 04004KT 10SM SCT250 07/M06 A3018 RMK AO2 SLP168 T00721056 10194 20067 58003
KCOS 180454Z 07003KT 10SM SCT250 08/M07 A3019 RMK AO2 SLP173 T00831067
KCOS 180354Z 03004KT 10SM FEW250 08/M06 A3020 RMK AO2 SLP179 T00831061
KCOS 180254Z 02003KT 10SM FEW250 08/M06 A3019 RMK AO2 SLP179 T00831061 51007
KCOS 180154Z 27003KT 10SM FEW250 16/M10 A3019 RMK AO2 SLP181 T01611100
KCOS 180054Z 15005KT 10SM SCT250 18/M11 A3018 RMK AO2 SLP181 T01831106